sensor_id;sensor_type;location;lat;lon;timestamp;P1;durP1;ratioP1;P2;durP2;ratioP2
54881;SDS011;40775;51.448;4.742;2022-08-19T00:02:11;4.95;;;2.70;;
54881;SDS011;40775;51.448;4.742;2022-08-19T00:04:38;4.03;;;2.60;;
54881;SDS011;40775;51.448;4.742;2022-08-19T00:07:06;3.65;;;2.20;;
54881;SDS011;40775;51.448;4.742;2022-08-19T00:09:34;3.75;;;2.20;;
54881;SDS011;40775;51.448;4.742;2022-08-19T00:12:01;4.57;;;2.45;;
54881;SDS011;40775;51.448;4.742;2022-08-19T00:14:29;4.13;;;2.43;;
54881;SDS011;40775;51.448;4.742;2022-08-19T00:17:00;3.38;;;2.40;;
54881;SDS011;40775;51.448;4.742;2022-08-19T00:19:29;3.10;;;2.20;;
54881;SDS011;40775;51.448;4.742;2022-08-19T00:21:57;3.05;;;2.00;;
54881;SDS011;40775;51.448;4.742;2022-08-19T00:24:25;3.83;;;2.20;;
54881;SDS011;40775;51.448;4.742;2022-08-19T00:26:55;4.22;;;2.42;;
54881;SDS011;40775;51.448;4.742;2022-08-19T00:29:43;4.18;;;2.17;;
54881;SDS011;40775;51.448;4.742;2022-08-19T00:32:10;3.45;;;2.25;;
54881;SDS011;40775;51.448;4.742;2022-08-19T00:34:39;3.75;;;2.42;;
54881;SDS011;40775;51.448;4.742;2022-08-19T00:37:06;4.20;;;2.27;;
54881;SDS011;40775;51.448;4.742;2022-08-19T00:39:33;4.38;;;2.58;;
54881;SDS011;40775;51.448;4.742;2022-08-19T00:42:00;4.13;;;2.47;;
54881;SDS011;40775;51.448;4.742;2022-08-19T00:44:28;4.15;;;2.13;;
54881;SDS011;40775;51.448;4.742;2022-08-19T00:46:57;4.35;;;2.40;;
54881;SDS011;40775;51.448;4.742;2022-08-19T00:49:31;3.72;;;2.38;;
54881;SDS011;40775;51.448;4.742;2022-08-19T00:52:14;3.67;;;2.25;;
54881;SDS011;40775;51.448;4.742;2022-08-19T00:54:49;3.83;;;2.25;;
54881;SDS011;40775;51.448;4.742;2022-08-19T00:57:19;3.05;;;1.92;;
54881;SDS011;40775;51.448;4.742;2022-08-19T01:00:09;3.30;;;2.00;;
54881;SDS011;40775;51.448;4.742;2022-08-19T01:02:41;4.40;;;2.35;;
54881;SDS011;40775;51.448;4.742;2022-08-19T01:05:10;3.33;;;2.13;;
54881;SDS011;40775;51.448;4.742;2022-08-19T01:07:47;3.08;;;1.90;;
54881;SDS011;40775;51.448;4.742;2022-08-19T01:10:19;4.07;;;2.25;;
54881;SDS011;40775;51.448;4.742;2022-08-19T01:12:51;3.72;;;2.20;;
54881;SDS011;40775;51.448;4.742;2022-08-19T01:15:21;3.92;;;2.25;;
54881;SDS011;40775;51.448;4.742;2022-08-19T01:17:53;4.10;;;2.35;;
54881;SDS011;40775;51.448;4.742;2022-08-19T01:20:23;3.63;;;2.20;;
54881;SDS011;40775;51.448;4.742;2022-08-19T01:22:55;3.80;;;2.10;;
54881;SDS011;40775;51.448;4.742;2022-08-19T01:25:26;3.92;;;2.50;;
54881;SDS011;40775;51.448;4.742;2022-08-19T01:28:04;3.58;;;2.22;;
54881;SDS011;40775;51.448;4.742;2022-08-19T01:30:36;3.90;;;2.15;;
54881;SDS011;40775;51.448;4.742;2022-08-19T01:33:04;4.20;;;2.50;;
54881;SDS011;40775;51.448;4.742;2022-08-19T01:35:32;3.30;;;2.20;;
54881;SDS011;40775;51.448;4.742;2022-08-19T01:38:04;4.22;;;2.38;;
54881;SDS011;40775;51.448;4.742;2022-08-19T01:40:38;3.63;;;2.38;;
54881;SDS011;40775;51.448;4.742;2022-08-19T01:43:08;4.53;;;2.20;;
54881;SDS011;40775;51.448;4.742;2022-08-19T01:45:35;3.63;;;2.15;;
54881;SDS011;40775;51.448;4.742;2022-08-19T01:48:05;3.30;;;2.20;;
54881;SDS011;40775;51.448;4.742;2022-08-19T01:50:33;3.90;;;2.45;;
54881;SDS011;40775;51.448;4.742;2022-08-19T01:53:02;4.18;;;2.30;;
54881;SDS011;40775;51.448;4.742;2022-08-19T01:55:34;3.80;;;2.40;;
54881;SDS011;40775;51.448;4.742;2022-08-19T01:58:12;4.65;;;2.40;;
54881;SDS011;40775;51.448;4.742;2022-08-19T02:00:48;4.32;;;2.33;;
54881;SDS011;40775;51.448;4.742;2022-08-19T02:03:16;4.45;;;2.42;;
54881;SDS011;40775;51.448;4.742;2022-08-19T02:05:43;4.07;;;2.30;;
54881;SDS011;40775;51.448;4.742;2022-08-19T02:08:11;3.90;;;2.33;;
54881;SDS011;40775;51.448;4.742;2022-08-19T02:10:40;4.60;;;2.78;;
54881;SDS011;40775;51.448;4.742;2022-08-19T02:13:10;5.07;;;2.70;;
54881;SDS011;40775;51.448;4.742;2022-08-19T02:15:38;6.00;;;2.60;;
54881;SDS011;40775;51.448;4.742;2022-08-19T02:18:06;4.22;;;2.67;;
54881;SDS011;40775;51.448;4.742;2022-08-19T02:20:34;5.47;;;2.70;;
54881;SDS011;40775;51.448;4.742;2022-08-19T02:23:03;5.07;;;3.08;;
54881;SDS011;40775;51.448;4.742;2022-08-19T02:25:39;4.45;;;2.80;;
54881;SDS011;40775;51.448;4.742;2022-08-19T02:28:07;6.25;;;3.55;;
54881;SDS011;40775;51.448;4.742;2022-08-19T02:30:34;6.13;;;3.15;;
54881;SDS011;40775;51.448;4.742;2022-08-19T02:33:07;7.63;;;3.55;;
54881;SDS011;40775;51.448;4.742;2022-08-19T02:35:34;5.57;;;3.40;;
54881;SDS011;40775;51.448;4.742;2022-08-19T02:38:02;5.32;;;3.53;;
54881;SDS011;40775;51.448;4.742;2022-08-19T02:40:49;7.13;;;3.83;;
54881;SDS011;40775;51.448;4.742;2022-08-19T02:43:19;6.55;;;3.70;;
54881;SDS011;40775;51.448;4.742;2022-08-19T02:45:47;6.78;;;3.65;;
54881;SDS011;40775;51.448;4.742;2022-08-19T02:48:17;6.53;;;4.00;;
54881;SDS011;40775;51.448;4.742;2022-08-19T02:50:48;5.63;;;3.47;;
54881;SDS011;40775;51.448;4.742;2022-08-19T02:53:22;6.57;;;4.20;;
54881;SDS011;40775;51.448;4.742;2022-08-19T02:55:52;6.80;;;3.90;;
54881;SDS011;40775;51.448;4.742;2022-08-19T02:58:20;5.77;;;3.57;;
54881;SDS011;40775;51.448;4.742;2022-08-19T03:00:52;7.28;;;4.13;;
54881;SDS011;40775;51.448;4.742;2022-08-19T03:03:22;7.90;;;4.55;;
54881;SDS011;40775;51.448;4.742;2022-08-19T03:05:49;6.95;;;4.28;;
54881;SDS011;40775;51.448;4.742;2022-08-19T03:08:22;6.60;;;4.13;;
54881;SDS011;40775;51.448;4.742;2022-08-19T03:10:50;7.93;;;4.60;;
54881;SDS011;40775;51.448;4.742;2022-08-19T03:13:19;6.57;;;4.45;;
54881;SDS011;40775;51.448;4.742;2022-08-19T03:15:46;7.80;;;4.50;;
54881;SDS011;40775;51.448;4.742;2022-08-19T03:18:15;6.85;;;4.40;;
54881;SDS011;40775;51.448;4.742;2022-08-19T03:20:50;6.93;;;4.70;;
54881;SDS011;40775;51.448;4.742;2022-08-19T03:23:22;6.75;;;4.40;;
54881;SDS011;40775;51.448;4.742;2022-08-19T03:25:50;8.18;;;4.63;;
54881;SDS011;40775;51.448;4.742;2022-08-19T03:28:39;7.88;;;4.40;;
54881;SDS011;40775;51.448;4.742;2022-08-19T03:31:23;7.40;;;4.50;;
54881;SDS011;40775;51.448;4.742;2022-08-19T03:34:13;7.67;;;4.57;;
54881;SDS011;40775;51.448;4.742;2022-08-19T03:36:44;6.85;;;4.43;;
54881;SDS011;40775;51.448;4.742;2022-08-19T03:39:13;8.65;;;4.75;;
54881;SDS011;40775;51.448;4.742;2022-08-19T03:41:43;7.20;;;4.50;;
54881;SDS011;40775;51.448;4.742;2022-08-19T03:44:14;8.18;;;4.85;;
54881;SDS011;40775;51.448;4.742;2022-08-19T03:46:47;8.93;;;4.70;;
54881;SDS011;40775;51.448;4.742;2022-08-19T03:49:18;6.30;;;4.00;;
54881;SDS011;40775;51.448;4.742;2022-08-19T03:51:54;6.43;;;3.65;;
54881;SDS011;40775;51.448;4.742;2022-08-19T03:54:24;5.72;;;3.63;;
54881;SDS011;40775;51.448;4.742;2022-08-19T03:56:52;5.22;;;3.28;;
54881;SDS011;40775;51.448;4.742;2022-08-19T03:59:31;7.47;;;3.75;;
54881;SDS011;40775;51.448;4.742;2022-08-19T04:02:02;6.57;;;3.83;;
54881;SDS011;40775;51.448;4.742;2022-08-19T04:04:36;5.85;;;3.47;;
54881;SDS011;40775;51.448;4.742;2022-08-19T04:07:05;5.40;;;3.55;;
54881;SDS011;40775;51.448;4.742;2022-08-19T04:09:34;6.70;;;4.00;;
54881;SDS011;40775;51.448;4.742;2022-08-19T04:12:05;9.50;;;4.32;;
54881;SDS011;40775;51.448;4.742;2022-08-19T04:14:35;6.70;;;3.83;;
54881;SDS011;40775;51.448;4.742;2022-08-19T04:17:02;7.23;;;4.33;;
54881;SDS011;40775;51.448;4.742;2022-08-19T04:19:31;7.18;;;4.35;;
54881;SDS011;40775;51.448;4.742;2022-08-19T04:22:01;7.32;;;4.20;;
54881;SDS011;40775;51.448;4.742;2022-08-19T04:24:30;6.47;;;3.85;;
54881;SDS011;40775;51.448;4.742;2022-08-19T04:26:58;7.43;;;4.30;;
54881;SDS011;40775;51.448;4.742;2022-08-19T04:29:28;7.45;;;3.78;;
54881;SDS011;40775;51.448;4.742;2022-08-19T04:31:56;5.57;;;3.42;;
54881;SDS011;40775;51.448;4.742;2022-08-19T04:34:25;6.72;;;4.00;;
54881;SDS011;40775;51.448;4.742;2022-08-19T04:36:56;7.25;;;4.18;;
54881;SDS011;40775;51.448;4.742;2022-08-19T04:39:26;7.30;;;4.18;;
54881;SDS011;40775;51.448;4.742;2022-08-19T04:42:16;6.95;;;4.00;;
54881;SDS011;40775;51.448;4.742;2022-08-19T04:45:06;8.07;;;4.30;;
54881;SDS011;40775;51.448;4.742;2022-08-19T04:47:40;8.80;;;4.55;;
54881;SDS011;40775;51.448;4.742;2022-08-19T04:50:22;5.80;;;3.65;;
54881;SDS011;40775;51.448;4.742;2022-08-19T04:52:51;8.10;;;3.67;;
54881;SDS011;40775;51.448;4.742;2022-08-19T04:55:18;6.93;;;3.85;;
54881;SDS011;40775;51.448;4.742;2022-08-19T04:57:45;6.45;;;3.72;;
54881;SDS011;40775;51.448;4.742;2022-08-19T05:00:15;7.20;;;4.40;;
54881;SDS011;40775;51.448;4.742;2022-08-19T05:02:42;7.15;;;4.60;;
54881;SDS011;40775;51.448;4.742;2022-08-19T05:05:10;7.72;;;3.83;;
54881;SDS011;40775;51.448;4.742;2022-08-19T05:07:37;6.35;;;3.75;;
54881;SDS011;40775;51.448;4.742;2022-08-19T05:10:05;6.10;;;3.78;;
54881;SDS011;40775;51.448;4.742;2022-08-19T05:12:33;5.85;;;4.25;;
54881;SDS011;40775;51.448;4.742;2022-08-19T05:15:01;5.57;;;3.70;;
54881;SDS011;40775;51.448;4.742;2022-08-19T05:17:31;6.82;;;4.03;;
54881;SDS011;40775;51.448;4.742;2022-08-19T05:20:04;6.40;;;3.83;;
54881;SDS011;40775;51.448;4.742;2022-08-19T05:22:52;6.90;;;4.00;;
54881;SDS011;40775;51.448;4.742;2022-08-19T05:25:20;7.00;;;4.47;;
54881;SDS011;40775;51.448;4.742;2022-08-19T05:27:48;7.05;;;4.07;;
54881;SDS011;40775;51.448;4.742;2022-08-19T05:30:15;7.77;;;4.40;;
54881;SDS011;40775;51.448;4.742;2022-08-19T05:32:43;15.15;;;9.10;;
54881;SDS011;40775;51.448;4.742;2022-08-19T05:35:11;7.47;;;4.60;;
54881;SDS011;40775;51.448;4.742;2022-08-19T05:37:38;8.32;;;4.32;;
54881;SDS011;40775;51.448;4.742;2022-08-19T05:40:07;7.45;;;4.30;;
54881;SDS011;40775;51.448;4.742;2022-08-19T05:42:35;5.95;;;3.55;;
54881;SDS011;40775;51.448;4.742;2022-08-19T05:45:03;6.97;;;3.72;;
54881;SDS011;40775;51.448;4.742;2022-08-19T05:47:30;6.38;;;3.72;;
54881;SDS011;40775;51.448;4.742;2022-08-19T05:49:58;6.95;;;3.47;;
54881;SDS011;40775;51.448;4.742;2022-08-19T05:52:30;4.75;;;3.08;;
54881;SDS011;40775;51.448;4.742;2022-08-19T05:54:58;7.35;;;3.67;;
54881;SDS011;40775;51.448;4.742;2022-08-19T05:57:25;6.15;;;3.47;;
54881;SDS011;40775;51.448;4.742;2022-08-19T05:59:55;6.60;;;3.05;;
54881;SDS011;40775;51.448;4.742;2022-08-19T06:02:25;5.88;;;2.75;;
54881;SDS011;40775;51.448;4.742;2022-08-19T06:04:53;4.50;;;2.42;;
54881;SDS011;40775;51.448;4.742;2022-08-19T06:07:20;4.40;;;2.75;;
54881;SDS011;40775;51.448;4.742;2022-08-19T06:09:47;4.72;;;2.55;;
54881;SDS011;40775;51.448;4.742;2022-08-19T06:12:27;4.78;;;2.50;;
54881;SDS011;40775;51.448;4.742;2022-08-19T06:14:58;5.68;;;2.95;;
54881;SDS011;40775;51.448;4.742;2022-08-19T06:17:28;4.38;;;2.20;;
54881;SDS011;40775;51.448;4.742;2022-08-19T06:19:57;4.75;;;2.47;;
54881;SDS011;40775;51.448;4.742;2022-08-19T06:22:25;7.32;;;3.00;;
54881;SDS011;40775;51.448;4.742;2022-08-19T06:24:54;4.80;;;2.57;;
54881;SDS011;40775;51.448;4.742;2022-08-19T06:27:21;3.80;;;2.30;;
54881;SDS011;40775;51.448;4.742;2022-08-19T06:29:49;4.55;;;2.60;;
54881;SDS011;40775;51.448;4.742;2022-08-19T06:32:16;5.00;;;2.63;;
54881;SDS011;40775;51.448;4.742;2022-08-19T06:34:45;4.90;;;2.42;;
54881;SDS011;40775;51.448;4.742;2022-08-19T06:37:12;3.55;;;2.35;;
54881;SDS011;40775;51.448;4.742;2022-08-19T06:39:41;3.72;;;2.40;;
54881;SDS011;40775;51.448;4.742;2022-08-19T06:42:11;5.10;;;2.63;;
54881;SDS011;40775;51.448;4.742;2022-08-19T06:44:40;5.25;;;2.53;;
54881;SDS011;40775;51.448;4.742;2022-08-19T06:47:15;5.40;;;2.53;;
54881;SDS011;40775;51.448;4.742;2022-08-19T06:49:50;4.60;;;2.60;;
54881;SDS011;40775;51.448;4.742;2022-08-19T06:52:37;3.78;;;2.10;;
54881;SDS011;40775;51.448;4.742;2022-08-19T06:55:06;4.30;;;2.70;;
54881;SDS011;40775;51.448;4.742;2022-08-19T06:57:34;5.00;;;2.63;;
54881;SDS011;40775;51.448;4.742;2022-08-19T07:00:02;4.38;;;2.40;;
54881;SDS011;40775;51.448;4.742;2022-08-19T07:02:34;4.57;;;2.17;;
54881;SDS011;40775;51.448;4.742;2022-08-19T07:05:03;4.05;;;2.30;;
54881;SDS011;40775;51.448;4.742;2022-08-19T07:07:31;3.90;;;2.22;;
54881;SDS011;40775;51.448;4.742;2022-08-19T07:09:59;4.68;;;2.30;;
54881;SDS011;40775;51.448;4.742;2022-08-19T07:12:30;5.13;;;2.40;;
54881;SDS011;40775;51.448;4.742;2022-08-19T07:15:00;3.60;;;2.08;;
54881;SDS011;40775;51.448;4.742;2022-08-19T07:17:31;4.18;;;2.10;;
54881;SDS011;40775;51.448;4.742;2022-08-19T07:20:00;3.95;;;2.20;;
54881;SDS011;40775;51.448;4.742;2022-08-19T07:22:32;5.00;;;2.33;;
54881;SDS011;40775;51.448;4.742;2022-08-19T07:25:02;4.25;;;2.35;;
54881;SDS011;40775;51.448;4.742;2022-08-19T07:27:31;4.10;;;2.28;;
54881;SDS011;40775;51.448;4.742;2022-08-19T07:29:59;3.95;;;2.05;;
54881;SDS011;40775;51.448;4.742;2022-08-19T07:32:26;3.67;;;2.03;;
54881;SDS011;40775;51.448;4.742;2022-08-19T07:34:54;4.23;;;2.63;;
54881;SDS011;40775;51.448;4.742;2022-08-19T07:37:22;3.13;;;2.00;;
54881;SDS011;40775;51.448;4.742;2022-08-19T07:39:58;4.07;;;2.05;;
54881;SDS011;40775;51.448;4.742;2022-08-19T07:42:27;4.50;;;2.00;;
54881;SDS011;40775;51.448;4.742;2022-08-19T07:44:56;3.75;;;2.30;;
54881;SDS011;40775;51.448;4.742;2022-08-19T07:47:24;3.65;;;2.08;;
54881;SDS011;40775;51.448;4.742;2022-08-19T07:50:13;3.60;;;2.17;;
54881;SDS011;40775;51.448;4.742;2022-08-19T07:52:40;3.37;;;2.13;;
54881;SDS011;40775;51.448;4.742;2022-08-19T07:55:14;3.92;;;2.00;;
54881;SDS011;40775;51.448;4.742;2022-08-19T07:58:02;4.43;;;2.37;;
54881;SDS011;40775;51.448;4.742;2022-08-19T08:00:31;3.47;;;2.00;;
54881;SDS011;40775;51.448;4.742;2022-08-19T08:02:58;4.20;;;2.17;;
54881;SDS011;40775;51.448;4.742;2022-08-19T08:05:25;3.83;;;2.22;;
54881;SDS011;40775;51.448;4.742;2022-08-19T08:08:11;4.87;;;2.10;;
54881;SDS011;40775;51.448;4.742;2022-08-19T08:10:57;4.07;;;2.22;;
54881;SDS011;40775;51.448;4.742;2022-08-19T08:13:25;4.00;;;2.08;;
54881;SDS011;40775;51.448;4.742;2022-08-19T08:15:54;3.85;;;2.20;;
54881;SDS011;40775;51.448;4.742;2022-08-19T08:18:23;3.40;;;1.75;;
54881;SDS011;40775;51.448;4.742;2022-08-19T08:20:56;3.88;;;1.90;;
54881;SDS011;40775;51.448;4.742;2022-08-19T08:23:24;4.97;;;2.70;;
54881;SDS011;40775;51.448;4.742;2022-08-19T08:25:53;8.48;;;4.30;;
54881;SDS011;40775;51.448;4.742;2022-08-19T08:28:24;4.10;;;2.17;;
54881;SDS011;40775;51.448;4.742;2022-08-19T08:30:55;4.47;;;2.65;;
54881;SDS011;40775;51.448;4.742;2022-08-19T08:33:25;4.47;;;2.20;;
54881;SDS011;40775;51.448;4.742;2022-08-19T08:36:01;9.45;;;5.13;;
54881;SDS011;40775;51.448;4.742;2022-08-19T08:38:31;8.02;;;4.32;;
54881;SDS011;40775;51.448;4.742;2022-08-19T08:41:11;4.03;;;2.00;;
54881;SDS011;40775;51.448;4.742;2022-08-19T08:44:03;3.67;;;2.13;;
54881;SDS011;40775;51.448;4.742;2022-08-19T08:46:35;4.03;;;2.38;;
54881;SDS011;40775;51.448;4.742;2022-08-19T08:52:32;6.18;;;3.75;;
54881;SDS011;40775;51.448;4.742;2022-08-19T08:55:06;7.65;;;4.15;;
54881;SDS011;40775;51.448;4.742;2022-08-19T09:02:58;4.45;;;2.30;;
54881;SDS011;40775;51.448;4.742;2022-08-19T09:06:13;4.28;;;1.90;;
54881;SDS011;40775;51.448;4.742;2022-08-19T09:11:41;3.58;;;2.10;;
54881;SDS011;40775;51.448;4.742;2022-08-19T09:14:59;9.75;;;4.28;;
54881;SDS011;40775;51.448;4.742;2022-08-19T09:17:32;11.18;;;6.97;;
54881;SDS011;40775;51.448;4.742;2022-08-19T09:22:51;3.58;;;2.00;;
54881;SDS011;40775;51.448;4.742;2022-08-19T09:25:19;10.82;;;6.38;;
54881;SDS011;40775;51.448;4.742;2022-08-19T09:27:52;10.18;;;5.68;;
54881;SDS011;40775;51.448;4.742;2022-08-19T09:30:30;3.50;;;1.88;;
54881;SDS011;40775;51.448;4.742;2022-08-19T09:33:01;3.00;;;1.63;;
54881;SDS011;40775;51.448;4.742;2022-08-19T09:35:29;3.33;;;1.93;;
54881;SDS011;40775;51.448;4.742;2022-08-19T09:38:15;3.88;;;1.90;;
54881;SDS011;40775;51.448;4.742;2022-08-19T09:40:42;3.47;;;1.85;;
54881;SDS011;40775;51.448;4.742;2022-08-19T09:43:09;3.95;;;2.17;;
54881;SDS011;40775;51.448;4.742;2022-08-19T09:45:38;3.35;;;1.73;;
54881;SDS011;40775;51.448;4.742;2022-08-19T09:48:06;3.03;;;1.73;;
54881;SDS011;40775;51.448;4.742;2022-08-19T09:50:37;3.58;;;2.05;;
54881;SDS011;40775;51.448;4.742;2022-08-19T09:53:17;4.13;;;2.00;;
54881;SDS011;40775;51.448;4.742;2022-08-19T09:55:45;4.68;;;2.13;;
54881;SDS011;40775;51.448;4.742;2022-08-19T09:58:12;3.90;;;2.30;;
54881;SDS011;40775;51.448;4.742;2022-08-19T10:00:39;4.10;;;1.98;;
54881;SDS011;40775;51.448;4.742;2022-08-19T10:03:06;3.58;;;1.92;;
54881;SDS011;40775;51.448;4.742;2022-08-19T10:05:33;3.50;;;1.92;;
54881;SDS011;40775;51.448;4.742;2022-08-19T10:08:24;3.10;;;1.80;;
54881;SDS011;40775;51.448;4.742;2022-08-19T10:10:57;4.25;;;2.47;;
54881;SDS011;40775;51.448;4.742;2022-08-19T10:13:45;3.17;;;1.70;;
54881;SDS011;40775;51.448;4.742;2022-08-19T10:16:15;3.30;;;1.83;;
54881;SDS011;40775;51.448;4.742;2022-08-19T10:18:55;3.67;;;2.00;;
54881;SDS011;40775;51.448;4.742;2022-08-19T10:21:25;3.78;;;2.00;;
54881;SDS011;40775;51.448;4.742;2022-08-19T10:23:59;4.18;;;2.42;;
54881;SDS011;40775;51.448;4.742;2022-08-19T10:26:31;3.17;;;1.88;;
54881;SDS011;40775;51.448;4.742;2022-08-19T10:29:03;3.20;;;1.60;;
54881;SDS011;40775;51.448;4.742;2022-08-19T10:31:34;5.88;;;2.88;;
54881;SDS011;40775;51.448;4.742;2022-08-19T10:34:21;4.73;;;2.57;;
54881;SDS011;40775;51.448;4.742;2022-08-19T10:36:53;5.27;;;2.80;;
54881;SDS011;40775;51.448;4.742;2022-08-19T10:39:27;4.05;;;2.30;;
54881;SDS011;40775;51.448;4.742;2022-08-19T10:41:58;4.13;;;2.47;;
54881;SDS011;40775;51.448;4.742;2022-08-19T10:44:25;6.80;;;3.53;;
54881;SDS011;40775;51.448;4.742;2022-08-19T10:46:58;5.45;;;3.13;;
54881;SDS011;40775;51.448;4.742;2022-08-19T10:49:26;5.47;;;2.90;;
54881;SDS011;40775;51.448;4.742;2022-08-19T10:51:54;5.68;;;3.00;;
54881;SDS011;40775;51.448;4.742;2022-08-19T10:54:45;6.47;;;3.60;;
54881;SDS011;40775;51.448;4.742;2022-08-19T10:57:34;6.13;;;3.45;;
54881;SDS011;40775;51.448;4.742;2022-08-19T11:00:21;8.57;;;4.57;;
54881;SDS011;40775;51.448;4.742;2022-08-19T11:02:50;7.68;;;4.57;;
54881;SDS011;40775;51.448;4.742;2022-08-19T11:05:18;8.35;;;4.40;;
54881;SDS011;40775;51.448;4.742;2022-08-19T11:07:49;9.20;;;5.82;;
54881;SDS011;40775;51.448;4.742;2022-08-19T11:10:18;13.95;;;8.02;;
54881;SDS011;40775;51.448;4.742;2022-08-19T11:12:47;9.20;;;4.87;;
54881;SDS011;40775;51.448;4.742;2022-08-19T11:15:14;6.85;;;3.95;;
54881;SDS011;40775;51.448;4.742;2022-08-19T11:17:42;7.07;;;4.10;;
54881;SDS011;40775;51.448;4.742;2022-08-19T11:20:13;8.32;;;4.65;;
54881;SDS011;40775;51.448;4.742;2022-08-19T11:22:41;10.90;;;7.53;;
54881;SDS011;40775;51.448;4.742;2022-08-19T11:25:09;9.83;;;5.60;;
54881;SDS011;40775;51.448;4.742;2022-08-19T11:27:38;10.93;;;7.00;;
54881;SDS011;40775;51.448;4.742;2022-08-19T11:30:11;5.60;;;3.60;;
54881;SDS011;40775;51.448;4.742;2022-08-19T11:32:40;6.10;;;3.53;;
54881;SDS011;40775;51.448;4.742;2022-08-19T11:35:14;6.45;;;3.70;;
54881;SDS011;40775;51.448;4.742;2022-08-19T11:37:42;7.03;;;4.32;;
54881;SDS011;40775;51.448;4.742;2022-08-19T11:40:09;5.78;;;3.60;;
54881;SDS011;40775;51.448;4.742;2022-08-19T11:42:37;6.78;;;3.97;;
54881;SDS011;40775;51.448;4.742;2022-08-19T11:45:24;6.72;;;4.28;;
54881;SDS011;40775;51.448;4.742;2022-08-19T11:47:53;8.27;;;4.57;;
54881;SDS011;40775;51.448;4.742;2022-08-19T11:50:20;7.72;;;4.50;;
54881;SDS011;40775;51.448;4.742;2022-08-19T11:52:49;5.68;;;3.20;;
54881;SDS011;40775;51.448;4.742;2022-08-19T11:55:20;6.93;;;4.05;;
54881;SDS011;40775;51.448;4.742;2022-08-19T11:57:48;9.55;;;6.20;;
54881;SDS011;40775;51.448;4.742;2022-08-19T12:00:15;6.25;;;3.50;;
54881;SDS011;40775;51.448;4.742;2022-08-19T12:02:42;7.28;;;4.20;;
54881;SDS011;40775;51.448;4.742;2022-08-19T12:05:10;5.97;;;3.50;;
54881;SDS011;40775;51.448;4.742;2022-08-19T12:07:38;8.00;;;3.83;;
54881;SDS011;40775;51.448;4.742;2022-08-19T12:10:07;6.40;;;3.38;;
54881;SDS011;40775;51.448;4.742;2022-08-19T12:12:36;7.18;;;3.97;;
54881;SDS011;40775;51.448;4.742;2022-08-19T12:15:09;10.23;;;6.32;;
54881;SDS011;40775;51.448;4.742;2022-08-19T12:17:37;5.65;;;3.55;;
54881;SDS011;40775;51.448;4.742;2022-08-19T12:20:04;12.75;;;7.60;;
54881;SDS011;40775;51.448;4.742;2022-08-19T12:22:35;16.90;;;11.93;;
54881;SDS011;40775;51.448;4.742;2022-08-19T12:25:04;13.13;;;8.75;;
54881;SDS011;40775;51.448;4.742;2022-08-19T12:27:32;9.48;;;5.88;;
54881;SDS011;40775;51.448;4.742;2022-08-19T12:30:08;5.40;;;2.92;;
54881;SDS011;40775;51.448;4.742;2022-08-19T12:32:37;5.50;;;3.17;;
54881;SDS011;40775;51.448;4.742;2022-08-19T12:35:05;11.07;;;6.88;;
54881;SDS011;40775;51.448;4.742;2022-08-19T12:37:35;7.00;;;3.88;;
54881;SDS011;40775;51.448;4.742;2022-08-19T12:40:02;6.25;;;3.55;;
54881;SDS011;40775;51.448;4.742;2022-08-19T12:42:30;7.00;;;3.80;;
54881;SDS011;40775;51.448;4.742;2022-08-19T12:44:57;8.60;;;5.20;;
54881;SDS011;40775;51.448;4.742;2022-08-19T12:47:24;9.40;;;5.83;;
54881;SDS011;40775;51.448;4.742;2022-08-19T12:49:52;8.02;;;4.65;;
54881;SDS011;40775;51.448;4.742;2022-08-19T12:52:25;6.63;;;3.83;;
54881;SDS011;40775;51.448;4.742;2022-08-19T12:54:54;6.88;;;3.85;;
54881;SDS011;40775;51.448;4.742;2022-08-19T12:57:23;7.53;;;4.30;;
54881;SDS011;40775;51.448;4.742;2022-08-19T13:00:03;13.48;;;8.95;;
54881;SDS011;40775;51.448;4.742;2022-08-19T13:02:37;9.63;;;5.10;;
54881;SDS011;40775;51.448;4.742;2022-08-19T13:05:10;7.85;;;4.82;;
54881;SDS011;40775;51.448;4.742;2022-08-19T13:07:47;7.20;;;4.10;;
54881;SDS011;40775;51.448;4.742;2022-08-19T13:10:16;7.83;;;4.63;;
54881;SDS011;40775;51.448;4.742;2022-08-19T13:12:47;8.15;;;4.25;;
54881;SDS011;40775;51.448;4.742;2022-08-19T13:15:17;9.18;;;5.38;;
54881;SDS011;40775;51.448;4.742;2022-08-19T13:17:50;7.32;;;3.78;;
54881;SDS011;40775;51.448;4.742;2022-08-19T13:20:20;7.50;;;4.00;;
54881;SDS011;40775;51.448;4.742;2022-08-19T13:22:48;10.05;;;6.57;;
54881;SDS011;40775;51.448;4.742;2022-08-19T13:25:16;10.38;;;6.68;;
54881;SDS011;40775;51.448;4.742;2022-08-19T13:27:46;8.63;;;4.68;;
54881;SDS011;40775;51.448;4.742;2022-08-19T13:30:16;7.03;;;4.38;;
54881;SDS011;40775;51.448;4.742;2022-08-19T13:33:03;10.77;;;7.28;;
54881;SDS011;40775;51.448;4.742;2022-08-19T13:35:45;10.13;;;7.13;;
54881;SDS011;40775;51.448;4.742;2022-08-19T13:38:22;7.53;;;4.80;;
54881;SDS011;40775;51.448;4.742;2022-08-19T13:40:50;7.60;;;4.43;;
54881;SDS011;40775;51.448;4.742;2022-08-19T13:43:20;7.10;;;4.22;;
54881;SDS011;40775;51.448;4.742;2022-08-19T13:45:52;9.70;;;5.72;;
54881;SDS011;40775;51.448;4.742;2022-08-19T13:48:24;9.03;;;5.47;;
54881;SDS011;40775;51.448;4.742;2022-08-19T13:50:53;7.18;;;4.78;;
54881;SDS011;40775;51.448;4.742;2022-08-19T13:53:20;8.20;;;4.95;;
54881;SDS011;40775;51.448;4.742;2022-08-19T13:55:47;6.43;;;3.95;;
54881;SDS011;40775;51.448;4.742;2022-08-19T13:58:16;6.80;;;4.38;;
54881;SDS011;40775;51.448;4.742;2022-08-19T14:00:44;6.90;;;4.25;;
54881;SDS011;40775;51.448;4.742;2022-08-19T14:03:12;7.30;;;4.47;;
54881;SDS011;40775;51.448;4.742;2022-08-19T14:05:40;7.63;;;4.40;;
54881;SDS011;40775;51.448;4.742;2022-08-19T14:08:07;6.75;;;4.35;;
54881;SDS011;40775;51.448;4.742;2022-08-19T14:10:35;6.30;;;3.60;;
54881;SDS011;40775;51.448;4.742;2022-08-19T14:13:02;6.77;;;4.37;;
54881;SDS011;40775;51.448;4.742;2022-08-19T14:15:30;7.85;;;4.18;;
54881;SDS011;40775;51.448;4.742;2022-08-19T14:17:58;6.80;;;4.25;;
54881;SDS011;40775;51.448;4.742;2022-08-19T14:20:25;7.22;;;4.47;;
54881;SDS011;40775;51.448;4.742;2022-08-19T14:22:53;6.60;;;4.23;;
54881;SDS011;40775;51.448;4.742;2022-08-19T14:25:23;6.47;;;3.80;;
54881;SDS011;40775;51.448;4.742;2022-08-19T14:27:54;6.25;;;4.00;;
54881;SDS011;40775;51.448;4.742;2022-08-19T14:30:29;5.95;;;3.50;;
54881;SDS011;40775;51.448;4.742;2022-08-19T14:32:59;5.72;;;3.65;;
54881;SDS011;40775;51.448;4.742;2022-08-19T14:35:28;6.45;;;3.63;;
54881;SDS011;40775;51.448;4.742;2022-08-19T14:38:01;7.13;;;3.97;;
54881;SDS011;40775;51.448;4.742;2022-08-19T14:40:32;5.70;;;3.30;;
54881;SDS011;40775;51.448;4.742;2022-08-19T14:43:01;5.77;;;3.43;;
54881;SDS011;40775;51.448;4.742;2022-08-19T14:45:31;5.53;;;3.10;;
54881;SDS011;40775;51.448;4.742;2022-08-19T14:48:02;5.60;;;3.67;;
54881;SDS011;40775;51.448;4.742;2022-08-19T14:50:44;4.78;;;2.30;;
54881;SDS011;40775;51.448;4.742;2022-08-19T14:53:11;4.63;;;2.55;;
54881;SDS011;40775;51.448;4.742;2022-08-19T14:55:42;5.28;;;2.97;;
54881;SDS011;40775;51.448;4.742;2022-08-19T14:58:11;4.75;;;2.50;;
54881;SDS011;40775;51.448;4.742;2022-08-19T15:00:55;4.80;;;2.60;;
54881;SDS011;40775;51.448;4.742;2022-08-19T15:03:25;5.88;;;3.50;;
54881;SDS011;40775;51.448;4.742;2022-08-19T15:05:54;6.55;;;3.47;;
54881;SDS011;40775;51.448;4.742;2022-08-19T15:08:22;5.93;;;3.30;;
54881;SDS011;40775;51.448;4.742;2022-08-19T15:10:51;4.28;;;2.90;;
54881;SDS011;40775;51.448;4.742;2022-08-19T15:13:18;5.60;;;3.40;;
54881;SDS011;40775;51.448;4.742;2022-08-19T15:15:45;5.57;;;3.00;;
54881;SDS011;40775;51.448;4.742;2022-08-19T15:18:14;4.67;;;2.77;;
54881;SDS011;40775;51.448;4.742;2022-08-19T15:20:41;4.85;;;2.90;;
54881;SDS011;40775;51.448;4.742;2022-08-19T15:23:12;4.53;;;2.77;;
54881;SDS011;40775;51.448;4.742;2022-08-19T15:25:43;4.63;;;2.77;;
54881;SDS011;40775;51.448;4.742;2022-08-19T15:28:11;4.57;;;2.63;;